createdAt,value
2019-03-02T01:02:04.426Z,70.60
2019-03-02T01:07:02.639Z,70.03
2019-03-02T01:12:05.899Z,71.28
2019-03-02T01:17:06.065Z,70.77
2019-03-02T01:22:07.371Z,72.33
2019-03-02T01:27:08.710Z,70.88
2019-03-02T02:35:39.483Z,69.83
2019-03-02T02:40:35.375Z,70.25
2019-03-02T02:45:36.666Z,70.85
2019-03-02T02:50:37.965Z,70.25
2019-03-02T02:55:40.877Z,70.69
2019-03-02T04:04:01.599Z,69.28
2019-03-02T04:09:07.717Z,69.75
2019-03-02T04:14:04.996Z,69.45
2019-03-02T04:19:06.325Z,68.83
2019-03-02T04:24:07.649Z,68.54
2019-03-02T04:29:11.386Z,68.83
2019-03-02T06:02:54.828Z,70.71
2019-03-02T06:07:57.542Z,69.67
2019-03-02T06:12:57.678Z,69.74
2019-03-02T06:17:59.706Z,69.59
2019-03-02T06:23:00.984Z,69.64
2019-03-02T06:28:02.246Z,69.74
2019-03-02T06:33:05.108Z,69.81
2019-03-02T06:38:04.889Z,69.15
2019-03-02T06:43:06.231Z,69.92
2019-03-02T06:48:09.633Z,69.60
2019-03-02T06:53:09.496Z,69.33
2019-03-02T06:58:10.778Z,69.94
2019-03-02T07:03:12.906Z,69.74
2019-03-02T07:08:14.337Z,70.48
2019-03-02T07:13:17.817Z,68.94
2019-03-02T07:18:26.915Z,68.99
2019-03-02T07:23:28.789Z,69.12
2019-03-02T07:28:29.708Z,69.22
2019-03-02T07:33:31.044Z,68.59
2019-03-02T07:38:32.448Z,69.02
2019-03-02T07:43:34.532Z,68.77
2019-03-02T07:48:36.908Z,67.72
2019-03-02T07:53:38.790Z,67.72
2019-03-02T07:58:40.838Z,67.81
2019-03-02T08:03:42.164Z,67.35
2019-03-02T08:08:45.815Z,67.94
2019-03-02T08:13:45.645Z,66.40
2019-03-02T08:18:46.941Z,66.77
2019-03-02T08:23:48.253Z,65.99
2019-03-02T08:28:50.940Z,66.56
2019-03-02T08:33:50.932Z,66.42
2019-03-02T08:38:52.256Z,66.52
2019-03-02T08:43:53.557Z,65.62
2019-03-02T08:48:54.863Z,65.84
2019-03-02T08:53:56.167Z,65.11
2019-03-02T08:58:57.987Z,64.75
2019-03-02T09:04:00.219Z,64.60
2019-03-02T09:09:01.549Z,65.05
2019-03-02T09:14:02.865Z,65.66
2019-03-02T09:19:04.229Z,63.95
2019-03-02T09:24:05.568Z,64.15
2019-03-02T09:29:06.883Z,64.11
2019-03-02T09:34:08.975Z,63.65
2019-03-02T09:39:11.133Z,62.91
2019-03-02T09:44:12.519Z,63.62
2019-03-02T09:49:23.952Z,63.27
2019-03-02T09:54:25.259Z,63.22
2019-03-02T09:59:33.744Z,62.83
2019-03-02T10:04:42.449Z,62.18
2019-03-02T10:09:46.508Z,62.58
2019-03-02T10:14:47.798Z,62.75
2019-03-02T10:19:49.213Z,62.59
2019-03-02T10:24:53.279Z,62.27
2019-03-02T10:29:51.952Z,62.29
2019-03-02T10:34:53.364Z,62.11
2019-03-02T10:39:54.725Z,61.89
2019-03-02T10:44:57.294Z,61.54
2019-03-02T10:49:57.341Z,61.91
2019-03-02T10:54:58.699Z,60.77
2019-03-02T11:00:00.046Z,61.13
2019-03-02T11:05:01.507Z,61.21
2019-03-02T11:15:39.633Z,61.03
2019-03-02T11:20:41.839Z,60.97
2019-03-02T11:25:45.501Z,60.59
2019-03-02T11:30:48.586Z,60.88
2019-03-02T11:41:18.046Z,63.06
2019-03-02T11:46:21.088Z,61.90
2019-03-02T11:51:24.086Z,63.41
2019-03-02T11:56:30.156Z,63.43
2019-03-02T12:01:37.586Z,63.73
2019-03-02T12:06:41.941Z,64.56
2019-03-02T12:11:46.909Z,65.37
2019-03-02T12:22:42.473Z,64.37
2019-03-02T12:27:49.792Z,62.57
2019-03-02T12:32:52.011Z,61.04
2019-03-02T12:43:28.525Z,61.44
2019-03-02T12:48:31.765Z,59.93
2019-03-02T12:53:45.344Z,60.44
2019-03-02T12:58:55.427Z,59.11
2019-03-02T13:03:55.625Z,60.12
2019-03-02T13:09:13.523Z,60.27
2019-03-02T13:14:19.231Z,60.41
2019-03-02T13:19:23.005Z,59.08
2019-03-02T13:24:26.688Z,58.45
2019-03-02T13:29:34.911Z,58.84
2019-03-02T13:40:26.305Z,59.45
2019-03-02T13:45:31.970Z,57.79
2019-03-02T13:50:39.396Z,57.93
2019-03-02T13:55:50.856Z,56.70
2019-03-02T14:01:01.793Z,56.91
2019-03-02T14:06:19.743Z,57.03
2019-03-02T14:11:26.360Z,55.34
2019-03-02T14:22:02.676Z,55.98
2019-03-02T14:27:11.453Z,55.52
2019-03-02T14:32:26.511Z,55.75
2019-03-02T14:37:29.729Z,55.09
2019-03-02T14:42:31.885Z,54.83
2019-03-02T14:47:36.594Z,53.57
2019-03-02T14:52:38.531Z,52.95
2019-03-02T15:03:14.977Z,52.91
2019-03-02T15:08:17.082Z,52.44
2019-03-02T15:18:50.221Z,51.13
2019-03-02T15:29:37.168Z,52.07
2019-03-02T15:34:49.680Z,51.75
2019-03-02T15:39:53.630Z,51.98
2019-03-02T15:45:00.536Z,52.25
2019-03-02T15:55:30.321Z,49.78
2019-03-02T16:00:36.520Z,49.34
2019-03-02T16:05:44.190Z,48.36
2019-03-02T16:10:48.156Z,49.30
2019-03-02T16:15:54.464Z,49.94
2019-03-02T16:21:03.660Z,50.08
2019-03-02T16:26:07.111Z,50.15
2019-03-02T16:31:12.502Z,50.14
2019-03-02T16:36:13.948Z,51.56
2019-03-02T16:41:18.345Z,51.41
2019-03-02T16:46:21.462Z,50.57
2019-03-02T16:51:29.716Z,50.30
2019-03-02T16:56:36.123Z,50.35
2019-03-02T17:01:53.433Z,50.56
2019-03-02T17:07:01.724Z,50.73
2019-03-02T17:12:08.276Z,50.53
2019-03-02T17:17:12.035Z,50.75
2019-03-02T17:22:12.527Z,50.77
2019-03-02T17:27:17.785Z,50.83
2019-03-02T17:32:19.185Z,50.94
2019-03-02T17:37:23.495Z,51.19
2019-03-02T17:42:31.844Z,51.24
2019-03-02T17:53:05.748Z,52.49
2019-03-02T17:58:15.392Z,51.90
2019-03-02T18:03:25.048Z,52.15
2019-03-02T18:08:39.067Z,52.31
2019-03-02T18:13:49.021Z,52.65
2019-03-02T18:18:51.703Z,52.36
2019-03-02T18:23:55.795Z,52.60
2019-03-02T18:28:55.903Z,52.93
2019-03-02T18:33:57.792Z,52.86
2019-03-02T18:39:01.167Z,52.81
2019-03-02T18:44:01.975Z,52.81
2019-03-02T18:49:13.839Z,53.52
2019-03-02T18:54:12.111Z,55.03
2019-03-02T18:59:13.636Z,55.09
2019-03-02T19:04:14.984Z,55.44
2019-03-02T19:09:16.332Z,55.56
2019-03-02T19:14:21.061Z,55.92
2019-03-02T19:19:22.895Z,55.73
2019-03-02T19:24:24.626Z,57.42
2019-03-02T19:29:26.004Z,56.97
2019-03-02T19:34:27.975Z,57.14
2019-03-02T19:39:30.610Z,57.18
2019-03-02T19:44:33.430Z,57.20
2019-03-02T19:49:36.044Z,58.54
2019-03-02T19:54:38.795Z,57.72
2019-03-02T19:59:43.818Z,57.82
2019-03-02T20:04:47.052Z,57.96
2019-03-02T20:09:50.091Z,57.86
2019-03-02T20:14:52.005Z,57.81
2019-03-02T20:19:53.997Z,59.20
2019-03-02T20:24:58.576Z,59.36
2019-03-02T20:30:01.656Z,59.31
2019-03-02T20:35:04.199Z,58.79
2019-03-02T20:40:08.121Z,58.83
2019-03-02T20:45:12.297Z,59.27
2019-03-02T20:50:15.992Z,59.12
2019-03-02T20:55:18.003Z,59.39
2019-03-02T21:00:34.802Z,59.32
2019-03-02T21:05:39.351Z,60.08
2019-03-02T21:10:48.402Z,60.05
2019-03-02T21:15:53.395Z,60.36
2019-03-02T21:20:56.021Z,60.47
2019-03-02T21:26:03.066Z,60.08
2019-03-02T21:31:06.938Z,59.07
2019-03-02T21:36:13.923Z,58.89
2019-03-02T21:41:18.360Z,59.59
2019-03-02T21:46:20.392Z,59.28
2019-03-02T21:51:21.724Z,58.89
2019-03-02T21:56:23.031Z,58.89
2019-03-02T22:01:24.333Z,58.96
2019-03-02T22:06:26.425Z,59.26
2019-03-02T22:11:27.810Z,58.86
2019-03-02T22:16:29.094Z,59.28
2019-03-02T22:21:30.457Z,58.88
2019-03-02T22:26:31.726Z,58.76
2019-03-02T22:31:35.995Z,58.86
2019-03-02T22:36:37.947Z,58.30
2019-03-02T22:41:39.250Z,58.58
2019-03-02T22:46:40.544Z,58.78
2019-03-02T22:51:41.897Z,58.93
2019-03-02T22:56:43.227Z,58.58
2019-03-02T23:33:24.907Z,60.90
2019-03-02T23:38:26.197Z,61.24
2019-03-02T23:43:28.205Z,61.39
2019-03-02T23:48:29.507Z,61.74
2019-03-02T23:53:30.798Z,62.56
2019-03-02T23:58:32.835Z,62.35
